Latest Coastal Weather Observations for Point Perpendicular

IDN60701

Issued at 10:11 pm EST Friday 19 July 2019 (issued every 10 minutes, with the page automatically refreshed every 10 minutes)

About coastal observations | Map of coastal stations | Coastal observations for NSW | Marine services | Other Formats
Station Details ID: 068151 Name: POINT PERPENDICULAR AWS Lat: -35.09 Lon: 150.80 Height: 85.0 m
Data from the previous 72 hours. | See also: Recent months at Point Perpendicular
Date/Time
EST
Wind Sea
Height
m
Swell Vis
km
Cloud Weather Temp
°C
Press
hPa
Rain since
9am
mm
Dir  Spd
kts
Gust
kts
Height
m
Period
s
Dir
19/10:00pm NW 7 9 - - - - - - - 11.3 1022.8 0.0
19/09:30pm NW 7 9 - - - - - - - 11.5 1022.7 0.0
19/09:00pm NW 8 10 - - - - - - - 11.9 1022.4 0.0
19/08:30pm NNW 7 9 - - - - - - - 12.1 1022.3 0.0
19/08:00pm NNW 6 8 - - - - - - - 12.6 1022.2 0.0
19/07:30pm NNW 6 8 - - - - - - - 12.5 1022.0 0.0
19/07:00pm NE 6 6 - - - - - - - 13.6 1021.8 0.0
19/06:30pm ENE 5 6 - - - - - - - 14.4 1021.3 0.0
19/06:00pm E 5 6 - - - - - - - 14.9 1020.9 0.0
19/05:30pm E 5 6 - - - - - - - 15.0 1020.4 0.0
19/05:00pm E 5 6 - - - - - - - 15.1 1020.0 0.0
19/04:30pm E 4 6 - - - - - - - 15.3 1019.7 0.0
19/04:00pm ESE 5 6 - - - - - - - 16.5 1019.6 0.0
19/03:30pm SE 5 7 - - - - - - - 16.6 1019.4 0.0
19/03:00pm SSE 5 7 - - - - - - - 17.3 1019.2 0.0
19/02:30pm SSW 4 8 - - - - - - - 17.5 1019.0 0.0
19/02:00pm SW 4 7 - - - - - - - 17.3 1018.9 0.0
19/01:30pm SW 4 7 - - - - - - - 17.0 1018.7 0.0
19/01:00pm W 3 7 - - - - - - - 16.5 1018.7 0.0
19/12:30pm WSW 4 7 - - - - - - - 16.4 1018.9 0.0
19/12:00pm W 3 6 - - - - - - - 15.9 1019.2 0.0
19/11:30am W 4 7 - - - - - - - 15.5 1019.5 0.0
19/11:00am W 4 8 - - - - - - - 15.2 1019.7 0.0
19/10:30am W 5 10 - - - - - - - 14.4 1019.8 0.0
19/10:00am WNW 6 11 - - - - - - - 13.8 1019.7 0.0
19/09:30am WNW 7 12 - - - - - - - 12.9 1019.4 0.0
19/09:00am WNW 7 12 - - - - - - - 12.0 1019.0 0.0
19/08:30am WNW 5 9 - - - - - - - 11.4 1018.7 0.0
19/08:00am WNW 6 9 - - - - - - - 11.0 1018.3 0.0
19/07:30am WNW 7 12 - - - - - - - 10.5 1018.1 0.0
19/07:00am WNW 5 8 - - - - - - - 10.5 1017.9 0.0
19/06:30am WNW 5 9 - - - - - - - 10.4 1017.5 0.0
19/06:00am WNW 5 9 - - - - - - - 10.5 1017.2 0.0
19/05:30am WNW 6 9 - - - - - - - 10.5 1016.8 0.0
19/05:00am WNW 6 11 - - - - - - - 10.3 1016.6 0.0
19/04:30am WNW 6 12 - - - - - - - 9.9 1016.4 0.0
19/04:00am WNW 8 17 - - - - - - - 9.8 1016.3 0.0
19/03:30am NW 12 17 - - - - - - - 9.5 1015.7 0.0
19/03:00am WNW 12 20 - - - - - - - 9.8 1016.2 0.0
19/02:30am WNW 9 14 - - - - - - - 9.9 1016.6 0.0
19/02:00am WNW 10 17 - - - - - - - 9.8 1016.6 0.0
19/01:30am WNW 8 12 - - - - - - - 9.8 1016.6 0.0
19/01:00am WNW 6 12 - - - - - - - 9.9 1016.4 0.0
19/12:30am WNW 8 13 - - - - - - - 10.1 1016.4 0.0
19/12:00am WNW 6 12 - - - - - - - 10.2 1016.7 0.0
 
Date/Time
EST
Wind Sea
Height
m
Swell Vis
km
Cloud Weather Temp
°C
Press
hPa
Rain since
9am
mm
Dir  Spd
kts
Gust
kts
Height
m
Period
s
Dir
18/11:30pm WNW 8 13 - - - - - - - 10.4 1017.0 0.0
18/11:00pm WNW 7 15 - - - - - - - 10.5 1017.2 0.0
18/10:30pm WNW 8 14 - - - - - - - 10.6 1017.2 0.0
18/10:00pm NW 8 14 - - - - - - - 10.7 1017.4 0.0
18/09:30pm WNW 7 11 - - - - - - - 11.0 1017.1 0.0
18/09:00pm WNW 7 13 - - - - - - - 11.3 1017.1 0.0
18/08:30pm WNW 7 13 - - - - - - - 11.7 1017.2 0.0
18/08:00pm WNW 7 11 - - - - - - - 12.1 1016.9 0.0
18/07:30pm WNW 6 12 - - - - - - - 12.7 1017.0 0.0
18/07:00pm WNW 5 10 - - - - - - - 13.3 1016.5 0.0
18/06:30pm WNW 5 8 - - - - - - - 13.7 1016.4 0.0
18/06:00pm NNW 6 7 - - - - - - - 12.7 1016.0 0.0
18/05:30pm NNE 4 5 - - - - - - - 12.6 1015.9 0.0
18/05:00pm NE 3 3 - - - - - - - 13.6 1015.7 0.0
18/04:30pm SE 4 5 - - - - - - - 14.8 1015.4 0.0
18/04:00pm SE 5 7 - - - - - - - 15.5 1015.1 0.0
18/03:30pm SE 5 8 - - - - - - - 15.6 1014.7 0.0
18/03:00pm SSE 6 8 - - - - - - - 16.6 1014.5 0.0
18/02:30pm SSE 6 8 - - - - - - - 16.7 1014.5 0.0
18/02:00pm S 6 8 - - - - - - - 16.8 1014.4 0.0
18/01:30pm WSW 4 9 - - - - - - - 16.4 1014.3 0.0
18/01:00pm SW 7 12 - - - - - - - 16.2 1014.3 0.0
18/12:30pm WSW 5 11 - - - - - - - 15.8 1014.4 0.0
18/12:00pm WSW 5 9 - - - - - - - 15.5 1014.6 0.0
18/11:30am W 4 8 - - - - - - - 15.2 1014.9 0.0
18/11:00am W 4 10 - - - - - - - 14.8 1015.2 0.0
18/10:30am W 4 7 - - - - - - - 14.3 1015.4 0.0
18/10:00am W 4 8 - - - - - - - 13.9 1015.5 0.0
18/09:30am W 5 8 - - - - - - - 13.6 1015.5 0.0
18/09:00am W 5 8 - - - - - - - 13.1 1015.0 0.0
18/08:30am W 5 10 - - - - - - - 12.8 1014.4 0.0
18/08:00am WNW 5 10 - - - - - - - 12.5 1014.0 0.0
18/07:30am WNW 7 13 - - - - - - - 12.1 1013.3 0.0
18/07:00am WNW 6 11 - - - - - - - 12.3 1012.9 0.0
18/06:30am WNW 6 12 - - - - - - - 12.6 1012.4 0.0
18/06:00am WNW 5 9 - - - - - - - 12.5 1012.1 0.0
18/05:30am WNW 5 8 - - - - - - - 12.5 1011.9 0.0
18/05:00am WNW 5 9 - - - - - - - 12.0 1012.0 0.0
18/04:30am WNW 5 8 - - - - - - - 12.1 1012.0 0.0
18/04:00am WNW 5 8 - - - - - - - 12.6 1012.2 0.0
18/03:30am WNW 6 9 - - - - - - - 12.4 1011.7 0.0
18/03:00am W 4 7 - - - - - - - 12.5 1011.8 0.0
18/02:30am W 5 9 - - - - - - - 12.6 1011.5 0.0
18/02:00am W 5 8 - - - - - - - 12.7 1011.4 0.0
18/01:30am W 5 10 - - - - - - - 12.6 1011.5 0.0
18/01:00am W 7 12 - - - - - - - 12.5 1011.4 0.0
18/12:30am W 6 10 - - - - - - - 12.6 1011.6 0.0
18/12:00am W 5 9 - - - - - - - 12.6 1012.1 0.0
 
Date/Time
EST
Wind Sea
Height
m
Swell Vis
km
Cloud Weather Temp
°C
Press
hPa
Rain since
9am
mm
Dir  Spd
kts
Gust
kts
Height
m
Period
s
Dir
17/11:30pm W 5 8 - - - - - - - 12.6 1012.1 0.0
17/11:00pm W 4 8 - - - - - - - 12.5 1012.2 0.0
17/10:30pm WNW 7 14 - - - - - - - 12.4 1012.5 0.0
17/10:00pm WNW 5 11 - - - - - - - 12.6 1013.2 0.0
17/09:30pm WNW 6 10 - - - - - - - 12.5 1013.2 0.0
17/09:00pm WNW 5 9 - - - - - - - 12.5 1013.4 0.0
17/08:30pm WNW 6 10 - - - - - - - 12.8 1013.6 0.0
17/08:00pm WNW 7 13 - - - - - - - 13.0 1013.7 0.0
17/07:30pm WNW 8 13 - - - - - - - 13.1 1013.4 0.0
17/07:00pm W 9 14 - - - - - - - 13.2 1012.7 0.0
17/06:30pm W 9 15 - - - - - - - 13.3 1012.5 0.0
17/06:00pm W 7 13 - - - - - - - 13.5 1012.7 0.0
17/05:30pm WNW 8 19 - - - - - - - 13.9 1012.3 0.0
17/05:00pm WNW 12 25 - - - - - - - 14.1 1011.4 0.0
17/04:30pm WNW 12 24 - - - - - - - 14.6 1010.9 0.0
17/04:00pm WNW 12 20 - - - - - - - 14.7 1011.2 0.0
17/03:30pm WNW 10 19 - - - - - - - 15.6 1011.4 0.0
17/03:00pm WNW 10 17 - - - - - - - 15.7 1011.5 0.0
17/02:30pm WNW 11 19 - - - - - - - 16.2 1011.7 0.0
17/02:00pm WNW 10 18 - - - - - - - 16.1 1012.1 0.0
17/01:30pm WNW 11 20 - - - - - - - 15.9 1012.3 0.0
17/01:00pm WNW 9 17 - - - - - - - 16.1 1013.1 0.0
17/12:30pm WNW 10 18 - - - - - - - 16.1 1013.6 0.0
17/12:00pm WNW 7 13 - - - - - - - 15.9 1014.6 0.0
17/11:30am WNW 8 15 - - - - - - - 15.6 1015.4 0.0
17/11:00am WNW 8 14 - - - - - - - 15.5 1016.3 0.0
17/10:30am WNW 8 14 - - - - - - - 14.7 1016.7 0.0
17/10:00am WNW 7 14 - - - - - - - 14.0 1017.1 0.0
17/09:30am WNW 9 17 - - - - - - - 13.2 1017.3 0.0
17/09:00am WNW 10 17 - - - - - - - 12.6 1017.3 0.0
17/08:30am NW 11 17 - - - - - - - 11.9 1017.2 0.0
17/08:00am WNW 8 13 - - - - - - - 11.5 1017.4 0.0
17/07:30am WNW 7 14 - - - - - - - 11.2 1017.4 0.0
17/07:00am WNW 5 9 - - - - - - - 11.1 1017.5 0.0
17/06:30am WNW 5 11 - - - - - - - 11.1 1017.6 0.0
17/06:00am WNW 7 13 - - - - - - - 11.3 1017.3 0.0
17/05:30am WNW 5 13 - - - - - - - 11.3 1017.2 0.0
17/05:00am WNW 6 11 - - - - - - - 11.4 1017.2 0.0
17/04:30am WNW 7 11 - - - - - - - 11.5 1017.5 0.0
17/04:00am WNW 5 9 - - - - - - - 11.6 1017.5 0.0
17/03:30am WNW 6 11 - - - - - - - 11.6 1017.6 0.0
17/03:00am WNW 6 9 - - - - - - - 11.9 1017.6 0.0
17/02:30am WNW 5 8 - - - - - - - 11.8 1017.9 0.0
17/02:00am WNW 7 14 - - - - - - - 12.1 1017.9 0.0
17/01:30am WNW 5 9 - - - - - - - 12.5 1018.0 0.0
17/01:00am WNW 4 6 - - - - - - - 12.7 1018.1 0.0
17/12:30am W 4 8 - - - - - - - 12.9 1018.0 0.0
17/12:00am W 5 11 - - - - - - - 13.0 1018.2 0.0
 
Date/Time
EST
Wind Sea
Height
m
Swell Vis
km
Cloud Weather Temp
°C
Press
hPa
Rain since
9am
mm
Dir  Spd
kts
Gust
kts
Height
m
Period
s
Dir
16/11:30pm W 5 11 - - - - - - - 13.3 1018.1 0.0
16/11:00pm WSW 6 13 - - - - - - - 13.3 1018.1 0.0
16/10:30pm W 4 9 - - - - - - - 13.2 1018.1 0.0

Other formats

Comma delimited format used in spreadsheet applications
http://www.bom.gov.au/fwo/IDN60701/IDN60701.95940.axf

JavaScript Object Notation format (JSON) in row-major order
http://www.bom.gov.au/fwo/IDN60701/IDN60701.95940.json

Data quality

Most of these data are generated automatically and are frequently updated. Quality checks on data are not normally performed. It is possible for incorrect values to appear. Refer to information at About Latest Weather Observations and please check the disclaimer before using these data.